Time;durP1;ratioP1;P1;durP2;ratioP2;P2;SDS_P1;SDS_P2;PMS_P1;PMS_P2;Temp;Humidity;BMP_temperature;BMP_pressure;BME280_temperature;BME280_humidity;BME280_pressure;Samples;Min_cycle;Max_cycle;Signal;HPM_P1;HPM_P2
2022/05/11 00:00:37;0.00;0.00;0.62;0.00;0.00;0.62;3.57;2.90;;;29.70;24.80;;;;;;2243882;61;20380;-61
2022/05/11 00:03:23;0.00;0.00;0.62;0.00;0.00;0.62;3.67;3.00;;;29.70;24.80;;;;;;2244545;61;20392;-59
2022/05/11 00:06:08;0.00;0.00;0.62;0.00;0.00;0.62;3.20;2.83;;;29.70;24.80;;;;;;2244520;61;20929;-62
2022/05/11 00:08:53;0.00;0.00;0.62;0.00;0.00;0.62;3.33;3.10;;;29.70;24.80;;;;;;2244346;61;20420;-61
2022/05/11 00:11:39;0.00;0.00;0.62;0.00;0.00;0.62;3.40;3.10;;;29.70;24.80;;;;;;2243732;61;20372;-65
2022/05/11 00:14:23;0.00;0.00;0.62;0.00;0.00;0.62;2.80;2.60;;;29.70;24.80;;;;;;2245111;61;20688;-63
2022/05/11 00:17:08;0.00;0.00;0.62;0.00;0.00;0.62;4.27;2.90;;;29.80;24.80;;;;;;2244301;61;20885;-64
2022/05/11 00:19:54;0.00;0.00;0.62;0.00;0.00;0.62;3.47;2.80;;;29.70;24.80;;;;;;2244680;61;20996;-63
2022/05/11 00:22:40;0.00;0.00;0.62;0.00;0.00;0.62;4.00;3.00;;;29.70;24.80;;;;;;2243945;61;20416;-62
2022/05/11 00:25:26;0.00;0.00;0.62;0.00;0.00;0.62;5.33;2.70;;;29.70;24.80;;;;;;2244563;61;20521;-65
2022/05/11 00:28:12;0.00;0.00;0.62;0.00;0.00;0.62;3.97;3.57;;;29.70;24.80;;;;;;2244643;61;20365;-64
2022/05/11 00:30:56;0.00;0.00;0.62;0.00;0.00;0.62;3.20;2.90;;;29.80;24.80;;;;;;2243917;61;20397;-65
2022/05/11 00:33:41;0.00;0.00;0.62;0.00;0.00;0.62;3.50;2.70;;;29.80;24.80;;;;;;2244278;61;20811;-64
2022/05/11 00:36:28;0.00;0.00;0.62;0.00;0.00;0.62;3.00;2.80;;;29.80;24.80;;;;;;2244737;61;20499;-61
2022/05/11 00:39:19;0.00;0.00;0.62;0.00;0.00;0.62;4.27;2.97;;;29.80;24.80;;;;;;2244628;61;20460;-63
2022/05/11 00:42:05;0.00;0.00;0.62;0.00;0.00;0.62;3.30;3.00;;;29.80;24.80;;;;;;2244527;61;20372;-65
2022/05/11 00:44:53;0.00;0.00;0.62;0.00;0.00;0.62;3.43;3.13;;;29.80;24.80;;;;;;2246827;61;20416;-62
2022/05/11 00:47:43;0.00;0.00;0.62;0.00;0.00;0.62;4.00;3.07;;;29.80;24.80;;;;;;2246695;61;20379;-62
2022/05/11 00:50:34;0.00;0.00;0.62;0.00;0.00;0.62;3.20;2.90;;;29.80;24.80;;;;;;2244615;61;20525;-62
2022/05/11 00:53:21;0.00;0.00;0.62;0.00;0.00;0.62;3.03;2.80;;;29.80;24.80;;;;;;2244334;61;20420;-62
2022/05/11 00:56:06;0.00;0.00;0.62;0.00;0.00;0.62;3.30;3.00;;;29.80;24.80;;;;;;2244609;61;20373;-62
2022/05/11 00:58:56;0.00;0.00;0.62;0.00;0.00;0.62;2.90;2.60;;;29.80;24.80;;;;;;2243987;61;20404;-61
2022/05/11 01:01:42;0.00;0.00;0.62;0.00;0.00;0.62;3.90;3.50;;;29.80;24.80;;;;;;2243106;61;20357;-62
2022/05/11 01:04:27;0.00;0.00;0.62;0.00;0.00;0.62;3.53;3.23;;;29.80;24.80;;;;;;2244538;61;20468;-62
2022/05/11 01:07:14;0.00;0.00;0.62;0.00;0.00;0.62;3.37;3.07;;;29.80;24.80;;;;;;2243775;61;20488;-62
2022/05/11 01:10:00;0.00;0.00;0.62;0.00;0.00;0.62;3.50;3.20;;;29.80;24.80;;;;;;2243687;61;20889;-62
2022/05/11 01:12:49;0.00;0.00;0.62;0.00;0.00;0.62;4.60;3.60;;;29.80;24.90;;;;;;2244205;61;20464;-62
2022/05/11 01:15:34;0.00;0.00;0.62;0.00;0.00;0.62;4.20;3.73;;;29.80;24.80;;;;;;2243610;61;20380;-62
2022/05/11 01:18:20;0.00;0.00;0.62;0.00;0.00;0.62;3.23;2.93;;;29.80;24.80;;;;;;2244730;61;20776;-62
2022/05/11 01:21:07;0.00;0.00;0.62;0.00;0.00;0.62;3.50;3.10;;;29.80;24.80;;;;;;2243838;61;20424;-61
2022/05/11 01:23:59;0.00;0.00;0.62;0.00;0.00;0.62;3.50;3.20;;;29.80;24.80;;;;;;2243768;61;20468;-61
2022/05/11 01:26:44;0.00;0.00;0.62;0.00;0.00;0.62;3.50;3.20;;;29.80;24.80;;;;;;2244713;61;20385;-62
2022/05/11 01:29:29;0.00;0.00;0.62;0.00;0.00;0.62;5.67;4.30;;;29.80;24.80;;;;;;2243928;61;20812;-60
2022/05/11 01:32:13;0.00;0.00;0.62;0.00;0.00;0.62;5.47;3.63;;;29.80;24.80;;;;;;2243472;61;20372;-61
2022/05/11 01:35:18;0.00;0.00;0.62;0.00;0.00;0.62;5.20;4.43;;;29.80;24.80;;;;;;2244444;61;20469;-61
2022/05/11 01:38:17;0.00;0.00;0.62;0.00;0.00;0.62;5.07;3.70;;;29.70;24.50;;;;;;2243789;61;20361;-58
2022/05/11 01:41:02;0.00;0.00;0.62;0.00;0.00;0.62;4.33;3.90;;;29.60;24.30;;;;;;2244093;61;20444;-61
2022/05/11 01:43:49;0.00;0.00;0.62;0.00;0.00;0.62;4.00;3.13;;;29.50;24.20;;;;;;2244043;61;20385;-61
2022/05/11 01:46:35;0.00;0.00;0.62;0.00;0.00;0.62;4.03;3.63;;;29.40;24.10;;;;;;2242002;61;20373;-61
2022/05/11 01:49:22;0.00;0.00;0.62;0.00;0.00;0.62;4.43;3.97;;;29.30;24.10;;;;;;2248478;61;20383;-58
2022/05/11 01:52:07;0.00;0.00;0.62;0.00;0.00;0.62;6.50;4.07;;;29.20;24.10;;;;;;2247581;61;20923;-60
2022/05/11 01:54:52;0.00;0.00;0.62;0.00;0.00;0.62;4.40;4.00;;;29.10;24.10;;;;;;2248028;61;20407;-59
2022/05/11 01:57:36;0.00;0.00;0.62;0.00;0.00;0.62;6.10;3.70;;;29.00;24.10;;;;;;2248458;61;20371;-59
2022/05/11 02:00:23;0.00;0.00;0.62;0.00;0.00;0.62;6.97;4.00;;;28.90;24.30;;;;;;2247483;61;21120;-60
2022/05/11 02:03:07;0.00;0.00;0.62;0.00;0.00;0.62;4.60;4.20;;;28.80;24.30;;;;;;2248649;61;20391;-60
2022/05/11 02:09:03;0.00;0.00;0.62;0.00;0.00;0.62;6.00;4.50;;;28.60;24.20;;;;;;2247812;61;20368;-59
2022/05/11 02:11:47;0.00;0.00;0.62;0.00;0.00;0.62;6.40;4.60;;;28.50;24.30;;;;;;2247943;61;20911;-59
2022/05/11 02:14:32;0.00;0.00;0.62;0.00;0.00;0.62;6.00;4.47;;;28.40;24.40;;;;;;2247991;61;20387;-60
2022/05/11 02:17:20;0.00;0.00;0.62;0.00;0.00;0.62;8.00;4.53;;;28.40;24.60;;;;;;2248356;61;20927;-61
2022/05/11 02:20:06;0.00;0.00;0.62;0.00;0.00;0.62;5.07;4.57;;;28.30;24.70;;;;;;2248110;61;20427;-67
2022/05/11 02:22:51;0.00;0.00;0.62;0.00;0.00;0.62;7.93;4.73;;;28.10;24.80;;;;;;2247941;61;20411;-60
2022/05/11 02:25:36;0.00;0.00;0.62;0.00;0.00;0.62;3.73;3.43;;;28.10;24.90;;;;;;2248317;61;20352;-61
2022/05/11 02:28:22;0.00;0.00;0.62;0.00;0.00;0.62;5.43;4.30;;;28.00;25.00;;;;;;2247872;61;20368;-60
2022/05/11 02:31:07;0.00;0.00;0.62;0.00;0.00;0.62;5.37;4.17;;;27.90;25.10;;;;;;2245304;61;20412;-59
2022/05/11 02:33:53;0.00;0.00;0.62;0.00;0.00;0.62;4.63;4.23;;;27.80;25.20;;;;;;2244425;61;20388;-60
2022/05/11 02:36:38;0.00;0.00;0.62;0.00;0.00;0.62;4.20;3.70;;;27.70;25.30;;;;;;2244114;61;20909;-61
2022/05/11 02:39:22;0.00;0.00;0.62;0.00;0.00;0.62;7.53;4.10;;;27.70;25.40;;;;;;2243829;61;20392;-59
2022/05/11 02:42:06;0.00;0.00;0.62;0.00;0.00;0.62;6.40;3.90;;;27.60;25.50;;;;;;2243855;61;20828;-59
2022/05/11 02:44:52;0.00;0.00;0.62;0.00;0.00;0.62;5.57;4.30;;;27.50;25.50;;;;;;2243716;61;20380;-57
2022/05/11 02:47:37;0.00;0.00;0.62;0.00;0.00;0.62;4.13;3.73;;;27.50;25.70;;;;;;2244458;61;20781;-59
2022/05/11 02:50:27;0.00;0.00;0.62;0.00;0.00;0.62;5.23;3.87;;;27.40;25.70;;;;;;2243637;61;20384;-61
2022/05/11 02:53:12;0.00;0.00;0.62;0.00;0.00;0.62;4.30;3.90;;;27.40;25.80;;;;;;2243794;61;20514;-60
2022/05/11 02:55:57;0.00;0.00;0.62;0.00;0.00;0.62;6.47;3.53;;;27.40;25.90;;;;;;2244394;61;20813;-60
2022/05/11 02:58:42;0.00;0.00;0.62;0.00;0.00;0.62;4.17;3.77;;;27.40;26.00;;;;;;2243816;61;20369;-61
2022/05/11 03:01:26;0.00;0.00;0.62;0.00;0.00;0.62;6.20;4.03;;;27.30;26.10;;;;;;2248465;61;20421;-64
2022/05/11 03:04:11;0.00;0.00;0.62;0.00;0.00;0.62;5.63;4.80;;;27.30;26.20;;;;;;2244356;61;20492;-58
2022/05/11 03:06:57;0.00;0.00;0.62;0.00;0.00;0.62;4.50;4.10;;;27.20;26.30;;;;;;2243637;61;20963;-59
2022/05/11 03:09:42;0.00;0.00;0.62;0.00;0.00;0.62;4.83;3.73;;;27.20;26.40;;;;;;2244206;61;20534;-59
2022/05/11 03:12:26;0.00;0.00;0.62;0.00;0.00;0.62;5.13;4.63;;;27.20;26.40;;;;;;2243123;61;20381;-59
2022/05/11 03:15:12;0.00;0.00;0.62;0.00;0.00;0.62;7.27;5.40;;;27.10;26.50;;;;;;2243868;61;20420;-61
2022/05/11 03:17:57;0.00;0.00;0.62;0.00;0.00;0.62;4.97;4.50;;;27.10;26.60;;;;;;2245114;61;20404;-60
2022/05/11 03:20:42;0.00;0.00;0.62;0.00;0.00;0.62;6.13;5.60;;;27.10;26.80;;;;;;2244282;61;20798;-59
2022/05/11 03:23:28;0.00;0.00;0.62;0.00;0.00;0.62;5.73;5.23;;;27.00;27.00;;;;;;2244387;61;20416;-59
2022/05/11 03:26:14;0.00;0.00;0.62;0.00;0.00;0.62;5.83;4.87;;;27.00;27.10;;;;;;2244588;61;20373;-60
2022/05/11 03:28:58;0.00;0.00;0.62;0.00;0.00;0.62;6.10;5.20;;;26.90;27.20;;;;;;2244003;61;20368;-60
2022/05/11 03:34:36;0.00;0.00;0.62;0.00;0.00;0.62;5.43;4.93;;;27.00;27.20;;;;;;2246818;61;20479;-60
2022/05/11 03:34:49;0.00;0.00;0.62;0.00;0.00;0.62;6.00;5.37;;;27.00;27.30;;;;;;2248243;61;20407;-56
2022/05/11 03:37:33;0.00;0.00;0.62;0.00;0.00;0.62;5.23;4.73;;;26.90;27.30;;;;;;2248290;61;20773;-58
2022/05/11 03:40:19;0.00;0.00;0.62;0.00;0.00;0.62;5.87;5.27;;;26.90;27.40;;;;;;2248640;61;20443;-60
2022/05/11 03:43:05;0.00;0.00;0.62;0.00;0.00;0.62;7.23;5.90;;;26.90;27.40;;;;;;2248333;61;20415;-59
2022/05/11 03:45:50;0.00;0.00;0.62;0.00;0.00;0.62;8.03;5.10;;;26.90;27.50;;;;;;2248353;61;20911;-60
2022/05/11 03:48:35;0.00;0.00;0.62;0.00;0.00;0.62;8.60;5.43;;;26.90;27.50;;;;;;2248873;61;20367;-60
2022/05/11 03:51:20;0.00;0.00;0.62;0.00;0.00;0.62;6.27;5.67;;;26.80;27.60;;;;;;2248000;61;20364;-58
2022/05/11 03:54:05;0.00;0.00;0.62;0.00;0.00;0.62;9.40;5.57;;;26.80;27.60;;;;;;2248902;61;20388;-56
2022/05/11 03:56:51;0.00;0.00;0.62;0.00;0.00;0.62;5.97;5.47;;;26.80;27.70;;;;;;2248707;61;20919;-58
2022/05/11 03:59:35;0.00;0.00;0.62;0.00;0.00;0.62;9.50;5.40;;;26.80;27.80;;;;;;2248471;61;20398;-61
2022/05/11 04:02:20;0.00;0.00;0.62;0.00;0.00;0.62;6.73;6.13;;;26.70;27.80;;;;;;2248763;61;20360;-62
2022/05/11 04:05:07;0.00;0.00;0.62;0.00;0.00;0.62;7.80;5.90;;;26.70;27.80;;;;;;2248409;61;20384;-61
2022/05/11 04:07:51;0.00;0.00;0.62;0.00;0.00;0.62;6.97;6.03;;;26.60;27.90;;;;;;2248609;61;20771;-59
2022/05/11 04:10:36;0.00;0.00;0.62;0.00;0.00;0.62;7.87;6.07;;;26.60;27.90;;;;;;2248220;61;20403;-60
2022/05/11 04:13:22;0.00;0.00;0.62;0.00;0.00;0.62;9.87;6.67;;;26.50;27.90;;;;;;2248334;61;20403;-59
2022/05/11 04:16:09;0.00;0.00;0.62;0.00;0.00;0.62;9.90;6.80;;;26.50;28.00;;;;;;2248364;61;20884;-57
2022/05/11 04:18:54;0.00;0.00;0.62;0.00;0.00;0.62;9.10;5.90;;;26.40;28.00;;;;;;2253469;61;20456;-56
2022/05/11 04:21:39;0.00;0.00;0.62;0.00;0.00;0.62;6.97;6.27;;;26.40;28.10;;;;;;2248091;61;20371;-58
2022/05/11 04:24:23;0.00;0.00;0.62;0.00;0.00;0.62;9.27;5.53;;;26.30;28.10;;;;;;2248871;61;20423;-56
2022/05/11 04:27:08;0.00;0.00;0.62;0.00;0.00;0.62;8.27;5.67;;;26.30;28.20;;;;;;2248195;61;20492;-56
2022/05/11 04:29:54;0.00;0.00;0.62;0.00;0.00;0.62;10.37;5.70;;;26.30;28.20;;;;;;2248363;61;20969;-55
2022/05/11 04:32:40;0.00;0.00;0.62;0.00;0.00;0.62;6.00;5.13;;;26.20;28.20;;;;;;2248677;61;20419;-59
2022/05/11 04:35:30;0.00;0.00;0.62;0.00;0.00;0.62;6.67;5.17;;;26.20;28.30;;;;;;2248479;61;20364;-56
2022/05/11 04:38:15;0.00;0.00;0.62;0.00;0.00;0.62;8.13;6.07;;;26.20;28.30;;;;;;2248390;61;20384;-59
2022/05/11 04:41:00;0.00;0.00;0.62;0.00;0.00;0.62;16.60;11.07;;;26.20;28.40;;;;;;2248127;61;20395;-59
2022/05/11 04:43:45;0.00;0.00;0.62;0.00;0.00;0.62;15.63;12.60;;;26.20;28.40;;;;;;2248220;61;20391;-59
2022/05/11 04:46:33;0.00;0.00;0.62;0.00;0.00;0.62;20.87;14.13;;;26.10;28.40;;;;;;2248701;61;20388;-61
2022/05/11 04:49:23;0.00;0.00;0.62;0.00;0.00;0.62;24.70;17.63;;;26.10;28.30;;;;;;2248413;61;20767;-57
2022/05/11 04:52:13;0.00;0.00;0.62;0.00;0.00;0.62;32.33;21.70;;;26.20;28.30;;;;;;2247990;61;20368;-57
2022/05/11 04:54:58;0.00;0.00;0.62;0.00;0.00;0.62;36.73;24.53;;;26.10;28.40;;;;;;2248696;61;20419;-59
2022/05/11 04:57:42;0.00;0.00;0.62;0.00;0.00;0.62;43.33;25.63;;;26.10;28.40;;;;;;2248526;61;20821;-57
2022/05/11 05:00:27;0.00;0.00;0.62;0.00;0.00;0.62;36.10;23.93;;;26.10;28.40;;;;;;2248371;61;20383;-55
2022/05/11 05:03:14;0.00;0.00;0.62;0.00;0.00;0.62;42.37;25.63;;;26.10;28.40;;;;;;2248379;61;20384;-57
2022/05/11 05:05:59;0.00;0.00;0.62;0.00;0.00;0.62;37.60;21.57;;;26.10;28.40;;;;;;2248454;61;20428;-58
2022/05/11 05:08:44;0.00;0.00;0.62;0.00;0.00;0.62;26.53;18.23;;;26.10;28.40;;;;;;2248820;61;20444;-57
2022/05/11 05:11:28;0.00;0.00;0.62;0.00;0.00;0.62;24.90;14.50;;;26.10;28.40;;;;;;2247961;61;20420;-55
2022/05/11 05:14:13;0.00;0.00;0.62;0.00;0.00;0.62;18.50;12.50;;;26.00;28.40;;;;;;2248319;61;20435;-59
2022/05/11 05:17:01;0.00;0.00;0.62;0.00;0.00;0.62;20.50;13.33;;;26.00;28.50;;;;;;2248860;61;20376;-55
2022/05/11 05:19:47;0.00;0.00;0.62;0.00;0.00;0.62;20.67;12.47;;;26.00;28.50;;;;;;2248544;61;20435;-58
2022/05/11 05:22:32;0.00;0.00;0.62;0.00;0.00;0.62;16.43;11.23;;;26.00;28.60;;;;;;2248355;61;20928;-57
2022/05/11 05:25:16;0.00;0.00;0.62;0.00;0.00;0.62;15.70;11.40;;;26.00;28.60;;;;;;2248404;61;20399;-59
2022/05/11 05:31:10;0.00;0.00;0.62;0.00;0.00;0.62;8.97;7.50;;;25.90;28.70;;;;;;2248383;61;20407;-59
2022/05/11 05:33:59;0.00;0.00;0.62;0.00;0.00;0.62;10.80;8.70;;;25.90;28.80;;;;;;2247863;61;20395;-59
2022/05/11 05:36:45;0.00;0.00;0.62;0.00;0.00;0.62;7.53;6.40;;;25.80;28.80;;;;;;2248542;61;20468;-60
2022/05/11 05:39:30;0.00;0.00;0.62;0.00;0.00;0.62;10.80;5.87;;;25.80;29.00;;;;;;2248721;61;20367;-59
2022/05/11 05:42:19;0.00;0.00;0.62;0.00;0.00;0.62;7.93;6.10;;;25.80;29.00;;;;;;2248083;61;20399;-57
2022/05/11 05:45:07;0.00;0.00;0.62;0.00;0.00;0.62;8.20;6.80;;;25.80;29.10;;;;;;2246521;61;20446;-57
2022/05/11 05:47:51;0.00;0.00;0.62;0.00;0.00;0.62;8.27;6.50;;;25.80;29.10;;;;;;2248365;61;20456;-58
2022/05/11 05:50:36;0.00;0.00;0.62;0.00;0.00;0.62;7.10;6.40;;;25.80;29.20;;;;;;2247535;61;20873;-58
2022/05/11 05:53:22;0.00;0.00;0.62;0.00;0.00;0.62;6.90;5.70;;;25.80;29.10;;;;;;2248427;61;20387;-58
2022/05/11 05:56:08;0.00;0.00;0.62;0.00;0.00;0.62;7.00;5.03;;;25.80;29.20;;;;;;2247621;61;20356;-61
2022/05/11 05:58:58;0.00;0.00;0.62;0.00;0.00;0.62;9.90;6.00;;;25.80;29.20;;;;;;2471903;53;20362;-54
2022/05/11 06:01:43;0.00;0.00;0.62;0.00;0.00;0.62;5.73;4.30;;;25.80;29.20;;;;;;2239651;61;20385;-55
2022/05/11 06:04:27;0.00;0.00;0.62;0.00;0.00;0.62;6.90;5.50;;;25.80;29.20;;;;;;2240134;61;20390;-54
2022/05/11 06:07:13;0.00;0.00;0.62;0.00;0.00;0.62;10.47;5.23;;;25.80;29.20;;;;;;2240445;61;20365;-59
2022/05/11 06:09:59;0.00;0.00;0.62;0.00;0.00;0.62;6.37;4.50;;;25.80;29.30;;;;;;2240004;61;20369;-59
2022/05/11 06:12:44;0.00;0.00;0.62;0.00;0.00;0.62;4.97;4.33;;;25.90;29.20;;;;;;2239764;61;20369;-61
2022/05/11 06:15:28;0.00;0.00;0.62;0.00;0.00;0.62;5.00;3.90;;;25.90;29.20;;;;;;2240517;61;20813;-64
2022/05/11 06:18:13;0.00;0.00;0.62;0.00;0.00;0.62;5.00;4.50;;;25.90;29.20;;;;;;2240254;61;20425;-60
2022/05/11 06:20:57;0.00;0.00;0.62;0.00;0.00;0.62;9.10;4.97;;;26.00;29.20;;;;;;2245140;61;20468;-64
2022/05/11 06:23:43;0.00;0.00;0.62;0.00;0.00;0.62;8.33;5.10;;;26.00;29.20;;;;;;2248450;61;20996;-64
2022/05/11 06:26:29;0.00;0.00;0.62;0.00;0.00;0.62;5.47;4.83;;;26.00;29.10;;;;;;2247633;61;20831;-64
2022/05/11 06:29:15;0.00;0.00;0.62;0.00;0.00;0.62;5.20;4.70;;;26.10;29.10;;;;;;2248529;61;20932;-63
2022/05/11 06:31:59;0.00;0.00;0.62;0.00;0.00;0.62;5.03;4.60;;;26.10;29.10;;;;;;2247576;61;20851;-63
2022/05/11 06:34:44;0.00;0.00;0.62;0.00;0.00;0.62;6.20;4.80;;;26.20;29.10;;;;;;2247728;61;20399;-61
2022/05/11 06:37:28;0.00;0.00;0.62;0.00;0.00;0.62;4.97;4.30;;;26.20;29.10;;;;;;2248690;61;20359;-62
2022/05/11 06:40:15;0.00;0.00;0.62;0.00;0.00;0.62;5.40;4.90;;;26.30;29.10;;;;;;2247901;61;20788;-65
2022/05/11 06:43:02;0.00;0.00;0.62;0.00;0.00;0.62;6.83;4.33;;;26.30;29.10;;;;;;2247735;61;20452;-60
2022/05/11 06:45:47;0.00;0.00;0.62;0.00;0.00;0.62;8.87;5.20;;;26.30;29.00;;;;;;2248071;61;20410;-63
2022/05/11 06:48:32;0.00;0.00;0.62;0.00;0.00;0.62;4.60;3.60;;;26.40;29.00;;;;;;2248000;61;20395;-59
2022/05/11 06:51:19;0.00;0.00;0.62;0.00;0.00;0.62;5.40;4.30;;;26.40;28.90;;;;;;2247970;61;20368;-63
2022/05/11 07:00:14;0.00;0.00;0.62;0.00;0.00;0.62;6.10;4.80;;;26.50;28.90;;;;;;2248976;61;20414;-60
2022/05/11 07:02:59;0.00;0.00;0.62;0.00;0.00;0.62;5.47;4.80;;;26.60;28.90;;;;;;2248442;61;20368;-59
2022/05/11 07:05:47;0.00;0.00;0.62;0.00;0.00;0.62;13.53;5.50;;;26.60;28.90;;;;;;2248675;61;20447;-56
2022/05/11 07:08:37;0.00;0.00;0.62;0.00;0.00;0.62;9.17;5.73;;;26.60;28.90;;;;;;2248469;61;20367;-65
2022/05/11 07:14:26;0.00;0.00;0.62;0.00;0.00;0.62;6.17;5.20;;;26.70;28.90;;;;;;2249087;61;20399;-63
2022/05/11 07:17:12;0.00;0.00;0.62;0.00;0.00;0.62;6.63;4.67;;;26.70;28.90;;;;;;2247163;61;20410;-65
2022/05/11 07:19:57;0.00;0.00;0.62;0.00;0.00;0.62;5.30;4.83;;;26.70;28.90;;;;;;2247739;61;20924;-64
2022/05/11 07:22:42;0.00;0.00;0.62;0.00;0.00;0.62;8.70;5.07;;;26.80;28.90;;;;;;2248142;61;20375;-64
2022/05/11 07:25:28;0.00;0.00;0.62;0.00;0.00;0.62;8.10;5.20;;;26.80;28.90;;;;;;2248121;61;20363;-58
2022/05/11 07:28:15;0.00;0.00;0.62;0.00;0.00;0.62;4.87;4.47;;;26.80;28.90;;;;;;2248920;61;20387;-65
2022/05/11 07:30:59;0.00;0.00;0.62;0.00;0.00;0.62;5.90;4.93;;;26.90;28.90;;;;;;2248283;61;20452;-64
2022/05/11 07:33:46;0.00;0.00;0.62;0.00;0.00;0.62;5.93;5.10;;;26.90;28.80;;;;;;2248554;61;20403;-59
2022/05/11 07:36:30;0.00;0.00;0.62;0.00;0.00;0.62;7.40;4.80;;;27.00;28.90;;;;;;2249053;61;20367;-59
2022/05/11 07:39:15;0.00;0.00;0.62;0.00;0.00;0.62;6.20;5.60;;;27.00;28.80;;;;;;2248521;61;20488;-61
2022/05/11 07:41:59;0.00;0.00;0.62;0.00;0.00;0.62;10.83;4.47;;;27.00;28.80;;;;;;2247902;61;20392;-62
2022/05/11 07:44:44;0.00;0.00;0.62;0.00;0.00;0.62;6.20;4.93;;;27.00;28.70;;;;;;2248762;61;20427;-60
2022/05/11 07:47:28;0.00;0.00;0.62;0.00;0.00;0.62;5.23;4.73;;;27.00;28.70;;;;;;2248359;61;20464;-65
2022/05/11 07:50:15;0.00;0.00;0.62;0.00;0.00;0.62;6.07;4.80;;;27.10;28.70;;;;;;2248692;61;20355;-62
2022/05/11 07:53:00;0.00;0.00;0.62;0.00;0.00;0.62;6.73;5.07;;;27.10;28.70;;;;;;2248445;61;20426;-60
2022/05/11 07:55:44;0.00;0.00;0.62;0.00;0.00;0.62;5.10;4.70;;;27.20;28.70;;;;;;2248987;61;20380;-62
2022/05/11 08:01:32;0.00;0.00;0.62;0.00;0.00;0.62;8.03;4.27;;;27.20;28.60;;;;;;2247854;61;20438;-62
2022/05/11 08:04:17;0.00;0.00;0.62;0.00;0.00;0.62;5.37;4.50;;;27.30;28.60;;;;;;2248544;61;20380;-58
2022/05/11 08:07:04;0.00;0.00;0.62;0.00;0.00;0.62;6.50;4.90;;;27.30;28.50;;;;;;2248620;61;20418;-60
2022/05/11 08:09:49;0.00;0.00;0.62;0.00;0.00;0.62;7.20;5.07;;;27.30;28.50;;;;;;2248543;61;20519;-63
2022/05/11 08:12:34;0.00;0.00;0.62;0.00;0.00;0.62;5.57;5.03;;;27.40;28.40;;;;;;2248299;61;20367;-62
2022/05/11 08:15:21;0.00;0.00;0.62;0.00;0.00;0.62;5.50;5.00;;;27.40;28.30;;;;;;2248431;61;20470;-61
2022/05/11 08:18:07;0.00;0.00;0.62;0.00;0.00;0.62;11.43;5.37;;;27.40;28.20;;;;;;2244837;61;20372;-63
2022/05/11 08:20:53;0.00;0.00;0.62;0.00;0.00;0.62;5.13;4.70;;;27.40;28.10;;;;;;2244315;61;20548;-63
2022/05/11 08:23:39;0.00;0.00;0.62;0.00;0.00;0.62;10.60;5.60;;;27.40;28.00;;;;;;2244191;61;20812;-61
2022/05/11 08:26:24;0.00;0.00;0.62;0.00;0.00;0.62;5.10;4.70;;;27.50;27.90;;;;;;2244435;61;20372;-67
2022/05/11 08:29:09;0.00;0.00;0.62;0.00;0.00;0.62;4.97;4.47;;;27.50;27.80;;;;;;2254925;61;20371;-62
2022/05/11 08:35:13;0.00;0.00;0.62;0.00;0.00;0.62;4.90;4.50;;;27.50;27.70;;;;;;2239570;61;20531;-61
2022/05/11 08:37:58;0.00;0.00;0.62;0.00;0.00;0.62;5.47;4.87;;;27.50;27.60;;;;;;2248384;61;20458;-63
2022/05/11 08:40:52;0.00;0.00;0.62;0.00;0.00;0.62;5.70;5.20;;;27.60;27.60;;;;;;2248035;61;20427;-62
2022/05/11 08:43:37;0.00;0.00;0.62;0.00;0.00;0.62;5.80;4.53;;;27.60;27.60;;;;;;2248735;61;20384;-62
2022/05/11 08:46:43;0.00;0.00;0.62;0.00;0.00;0.62;5.47;4.97;;;27.60;27.40;;;;;;2248156;61;20448;-61
2022/05/11 08:49:43;0.00;0.00;0.62;0.00;0.00;0.62;5.77;4.00;;;27.60;27.40;;;;;;2248743;61;20418;-62
2022/05/11 08:52:40;0.00;0.00;0.62;0.00;0.00;0.62;4.20;3.80;;;27.60;27.30;;;;;;2247940;61;20415;-61
2022/05/11 08:55:37;0.00;0.00;0.62;0.00;0.00;0.62;5.33;4.67;;;27.60;27.20;;;;;;2248514;61;20836;-63
2022/05/11 08:58:28;0.00;0.00;0.62;0.00;0.00;0.62;5.90;4.60;;;27.70;27.20;;;;;;2248613;61;20359;-59
2022/05/11 09:01:20;0.00;0.00;0.62;0.00;0.00;0.62;5.87;4.83;;;27.70;27.10;;;;;;2247789;61;20461;-58
2022/05/11 09:04:09;0.00;0.00;0.62;0.00;0.00;0.62;4.80;4.27;;;27.70;27.00;;;;;;2248637;61;20395;-59
2022/05/11 09:06:54;0.00;0.00;0.62;0.00;0.00;0.62;5.27;4.87;;;27.70;27.00;;;;;;2248748;61;20379;-64
2022/05/11 09:09:39;0.00;0.00;0.62;0.00;0.00;0.62;5.10;4.50;;;27.80;27.00;;;;;;2248344;61;20371;-59
2022/05/11 09:12:24;0.00;0.00;0.62;0.00;0.00;0.62;5.80;5.20;;;27.80;27.00;;;;;;2248342;61;20859;-63
2022/05/11 09:15:10;0.00;0.00;0.62;0.00;0.00;0.62;6.67;5.20;;;27.80;27.00;;;;;;2248160;61;20387;-64
2022/05/11 09:18:05;0.00;0.00;0.62;0.00;0.00;0.62;5.50;5.00;;;27.80;27.00;;;;;;2248367;61;20364;-61
2022/05/11 09:20:52;0.00;0.00;0.62;0.00;0.00;0.62;5.90;5.00;;;27.80;26.90;;;;;;2248346;61;20431;-60
2022/05/11 09:23:41;0.00;0.00;0.62;0.00;0.00;0.62;5.40;4.67;;;27.80;27.00;;;;;;2248064;61;20406;-61
2022/05/11 09:26:31;0.00;0.00;0.62;0.00;0.00;0.62;6.07;5.47;;;27.80;27.00;;;;;;2248411;61;20916;-61
2022/05/11 09:29:20;0.00;0.00;0.62;0.00;0.00;0.62;8.23;4.50;;;27.90;27.00;;;;;;2248204;61;20418;-58
2022/05/11 09:32:35;0.00;0.00;0.62;0.00;0.00;0.62;4.93;4.43;;;27.90;27.00;;;;;;2248012;61;20396;-63
2022/05/11 09:35:36;0.00;0.00;0.62;0.00;0.00;0.62;6.90;5.20;;;27.90;26.90;;;;;;2248381;61;20415;-56
2022/05/11 09:38:36;0.00;0.00;0.62;0.00;0.00;0.62;5.30;4.70;;;27.90;26.80;;;;;;2248347;61;20773;-62
2022/05/11 09:41:29;0.00;0.00;0.62;0.00;0.00;0.62;5.10;4.60;;;27.90;26.70;;;;;;2247969;61;20399;-56
2022/05/11 09:44:20;0.00;0.00;0.62;0.00;0.00;0.62;5.43;4.93;;;27.90;26.70;;;;;;2248425;61;20840;-63
2022/05/11 09:47:24;0.00;0.00;0.62;0.00;0.00;0.62;5.77;5.17;;;27.90;26.70;;;;;;2251824;61;20369;-63
2022/05/11 09:50:21;0.00;0.00;0.62;0.00;0.00;0.62;4.70;4.30;;;27.90;26.70;;;;;;2244439;61;20902;-61
2022/05/11 09:53:22;0.00;0.00;0.62;0.00;0.00;0.62;4.93;4.53;;;28.00;26.70;;;;;;2244071;61;20497;-59
2022/05/11 09:56:19;0.00;0.00;0.62;0.00;0.00;0.62;4.33;3.80;;;28.00;26.70;;;;;;2244122;61;20786;-62
2022/05/11 09:59:22;0.00;0.00;0.62;0.00;0.00;0.62;5.03;4.33;;;28.00;26.70;;;;;;2243275;61;20471;-62
2022/05/11 10:02:30;0.00;0.00;0.62;0.00;0.00;0.62;4.50;4.10;;;28.10;26.70;;;;;;2243914;61;20384;-62
2022/05/11 10:05:24;0.00;0.00;0.62;0.00;0.00;0.62;5.40;4.10;;;28.10;26.70;;;;;;2244241;61;20476;-62
2022/05/11 10:08:21;0.00;0.00;0.62;0.00;0.00;0.62;6.90;4.00;;;28.10;26.70;;;;;;2244224;61;20373;-61
2022/05/11 10:11:12;0.00;0.00;0.62;0.00;0.00;0.62;6.73;4.60;;;28.10;26.70;;;;;;2243570;61;20396;-62
2022/05/11 10:14:02;0.00;0.00;0.62;0.00;0.00;0.62;4.80;4.30;;;28.20;26.70;;;;;;2243894;61;20917;-62
2022/05/11 10:23:03;0.00;0.00;0.62;0.00;0.00;0.62;8.50;4.97;;;28.20;26.60;;;;;;2244290;61;20443;-64
2022/05/11 10:25:55;0.00;0.00;0.62;0.00;0.00;0.62;5.37;4.97;;;28.30;26.60;;;;;;2244512;61;20407;-60
2022/05/11 10:28:52;0.00;0.00;0.62;0.00;0.00;0.62;4.33;3.93;;;28.30;26.60;;;;;;2244923;61;20429;-60
2022/05/11 10:31:53;0.00;0.00;0.62;0.00;0.00;0.62;4.40;3.97;;;28.30;26.60;;;;;;2244837;61;20392;-61
2022/05/11 10:34:49;0.00;0.00;0.62;0.00;0.00;0.62;4.90;4.40;;;28.40;26.60;;;;;;2244588;61;20484;-62
2022/05/11 10:37:43;0.00;0.00;0.62;0.00;0.00;0.62;4.00;3.47;;;28.40;26.40;;;;;;2244795;61;20411;-62
2022/05/11 10:40:40;0.00;0.00;0.62;0.00;0.00;0.62;4.27;3.90;;;28.40;26.30;;;;;;2244948;61;20396;-63
2022/05/11 10:43:50;0.00;0.00;0.62;0.00;0.00;0.62;3.93;3.63;;;28.40;26.20;;;;;;2244739;61;20396;-63
2022/05/11 10:46:37;0.00;0.00;0.62;0.00;0.00;0.62;4.53;3.67;;;28.50;26.30;;;;;;2244895;61;20376;-63
2022/05/11 10:49:54;0.00;0.00;0.62;0.00;0.00;0.62;3.93;3.60;;;28.50;26.30;;;;;;2245101;61;20365;-62
2022/05/11 10:53:03;0.00;0.00;0.62;0.00;0.00;0.62;3.60;3.30;;;28.50;26.30;;;;;;2243828;61;20404;-64
2022/05/11 10:56:00;0.00;0.00;0.62;0.00;0.00;0.62;3.40;3.10;;;28.50;26.30;;;;;;2244857;61;20364;-63
2022/05/11 10:59:05;0.00;0.00;0.62;0.00;0.00;0.62;3.50;3.20;;;28.50;26.30;;;;;;2244473;61;20372;-61
2022/05/11 11:02:09;0.00;0.00;0.62;0.00;0.00;0.62;3.60;3.13;;;28.50;26.30;;;;;;2244214;61;20420;-68
2022/05/11 11:05:05;0.00;0.00;0.62;0.00;0.00;0.62;3.67;3.20;;;28.60;26.40;;;;;;2244563;61;20451;-63
2022/05/11 11:07:59;0.00;0.00;0.62;0.00;0.00;0.62;5.53;3.60;;;28.60;26.30;;;;;;2244094;61;20364;-67
2022/05/11 11:10:49;0.00;0.00;0.62;0.00;0.00;0.62;3.20;2.90;;;28.60;26.30;;;;;;2244053;61;20360;-62
2022/05/11 11:13:49;0.00;0.00;0.62;0.00;0.00;0.62;2.87;2.67;;;28.70;26.40;;;;;;2244291;61;20420;-62
2022/05/11 11:16:38;0.00;0.00;0.62;0.00;0.00;0.62;3.87;3.47;;;28.70;26.40;;;;;;2249914;61;20612;-60
2022/05/11 11:19:22;0.00;0.00;0.62;0.00;0.00;0.62;3.50;3.00;;;28.70;26.40;;;;;;2244798;61;20448;-59
2022/05/11 11:22:07;0.00;0.00;0.62;0.00;0.00;0.62;2.87;2.63;;;28.80;26.40;;;;;;2243961;61;20525;-61
2022/05/11 11:25:22;0.00;0.00;0.62;0.00;0.00;0.62;3.10;2.70;;;28.80;26.40;;;;;;2244822;61;20408;-59
2022/05/11 11:28:12;0.00;0.00;0.62;0.00;0.00;0.62;2.40;2.20;;;28.80;26.40;;;;;;2244283;61;20400;-61
2022/05/11 11:31:22;0.00;0.00;0.62;0.00;0.00;0.62;3.47;2.93;;;28.80;26.30;;;;;;2244363;61;20372;-62